Time;durP1;ratioP1;P1;durP2;ratioP2;P2;SDS_P1;SDS_P2;PMS_P1;PMS_P2;Temp;Humidity;BMP_temperature;BMP_pressure;BME280_temperature;BME280_humidity;BME280_pressure;Samples;Min_cycle;Max_cycle;Signal;HPM_P1;HPM_P2
2022/04/06 00:00:24;;;;;;;11.45;5.22;;;;;;;;;;4953614;29;20023;-67
2022/04/06 00:02:50;;;;;;;14.52;5.65;;;;;;;;;;4953130;29;20019;-68
2022/04/06 00:05:17;;;;;;;9.50;4.97;;;;;;;;;;4953375;29;20042;-69
2022/04/06 00:07:44;;;;;;;12.38;5.45;;;;;;;;;;4953437;29;20028;-66
2022/04/06 00:10:11;;;;;;;14.95;6.00;;;;;;;;;;4953282;29;20031;-67
2022/04/06 00:12:37;;;;;;;12.02;5.53;;;;;;;;;;4953280;29;20423;-67
2022/04/06 00:15:05;;;;;;;10.73;5.35;;;;;;;;;;4953432;29;20055;-66
2022/04/06 00:17:31;;;;;;;11.00;5.45;;;;;;;;;;4953152;29;20495;-67
2022/04/06 00:19:57;;;;;;;11.13;5.30;;;;;;;;;;4953262;29;20031;-69
2022/04/06 00:22:23;;;;;;;13.15;6.20;;;;;;;;;;4952926;29;20039;-67
2022/04/06 00:24:49;;;;;;;11.63;5.72;;;;;;;;;;4952915;29;20039;-67
2022/04/06 00:27:16;;;;;;;9.95;5.43;;;;;;;;;;4952615;29;20023;-67
2022/04/06 00:29:42;;;;;;;10.00;4.90;;;;;;;;;;4952351;28;20035;-69
2022/04/06 00:32:08;;;;;;;11.05;4.78;;;;;;;;;;4952017;29;20031;-67
2022/04/06 00:37:19;;;;;;;9.52;4.85;;;;;;;;;;4952760;29;20563;-70
2022/04/06 00:39:45;;;;;;;9.68;4.80;;;;;;;;;;4952420;29;20515;-72
2022/04/06 00:42:11;;;;;;;8.93;4.65;;;;;;;;;;4952719;29;20059;-67
2022/04/06 00:44:37;;;;;;;10.48;5.43;;;;;;;;;;4952253;29;20491;-67
2022/04/06 00:47:04;;;;;;;8.57;4.80;;;;;;;;;;4952636;29;20028;-67
2022/04/06 00:49:30;;;;;;;10.43;4.75;;;;;;;;;;4952651;29;20042;-67
2022/04/06 00:51:57;;;;;;;9.98;5.15;;;;;;;;;;4952444;29;20045;-67
2022/04/06 00:54:23;;;;;;;11.77;5.32;;;;;;;;;;4952219;29;20039;-68
2022/04/06 00:56:50;;;;;;;10.80;4.88;;;;;;;;;;4952611;29;20365;-67
2022/04/06 00:59:19;;;;;;;11.25;5.35;;;;;;;;;;4934886;29;20408;-67
2022/04/06 01:01:46;;;;;;;12.88;5.72;;;;;;;;;;4952345;29;20479;-68
2022/04/06 01:04:13;;;;;;;9.00;5.25;;;;;;;;;;4952183;29;20050;-67
2022/04/06 01:06:39;;;;;;;12.20;4.82;;;;;;;;;;4952844;29;20101;-67
2022/04/06 01:09:05;;;;;;;10.55;4.82;;;;;;;;;;4952494;29;20040;-69
2022/04/06 01:11:31;;;;;;;9.70;5.30;;;;;;;;;;4952533;29;20037;-67
2022/04/06 01:13:57;;;;;;;9.82;5.03;;;;;;;;;;4952374;29;20035;-71
2022/04/06 05:26:04;;;;;;;22.50;8.00;;;;;;;;;;5155096;23;20108;-66
2022/04/06 05:28:30;;;;;;;18.13;7.90;;;;;;;;;;4917997;29;20510;-66
2022/04/06 05:30:56;;;;;;;15.93;7.45;;;;;;;;;;4918123;29;20036;-66
2022/04/06 05:33:23;;;;;;;16.00;7.22;;;;;;;;;;4917762;29;20126;-66
2022/04/06 05:35:49;;;;;;;18.98;8.00;;;;;;;;;;4918004;29;20036;-66
2022/04/06 05:38:15;;;;;;;12.13;7.25;;;;;;;;;;4917689;29;20140;-65
2022/04/06 05:40:41;;;;;;;14.00;6.93;;;;;;;;;;4917892;29;20032;-64
2022/04/06 05:43:07;;;;;;;17.27;7.15;;;;;;;;;;4917574;29;20031;-66
2022/04/06 05:45:33;;;;;;;13.38;7.03;;;;;;;;;;4917398;29;20035;-64
2022/04/06 05:47:59;;;;;;;13.38;7.05;;;;;;;;;;4917472;29;20380;-68
2022/04/06 05:50:25;;;;;;;16.75;7.10;;;;;;;;;;4917438;29;20028;-69
2022/04/06 05:52:51;;;;;;;12.82;6.35;;;;;;;;;;4917127;29;20048;-64
2022/04/06 05:55:17;;;;;;;15.00;6.55;;;;;;;;;;4917308;29;20508;-64
2022/04/06 05:57:43;;;;;;;12.00;5.72;;;;;;;;;;4916606;29;20391;-65
2022/04/06 06:00:09;;;;;;;15.10;6.22;;;;;;;;;;4917099;29;20047;-63
2022/04/06 06:02:36;;;;;;;12.15;5.13;;;;;;;;;;4917027;29;20437;-65
2022/04/06 06:05:02;;;;;;;14.63;5.63;;;;;;;;;;4917089;29;20058;-63
2022/04/06 06:07:28;;;;;;;15.27;5.80;;;;;;;;;;4916800;29;20020;-64
2022/04/06 06:09:54;;;;;;;13.45;5.90;;;;;;;;;;4916903;29;20112;-65
2022/04/06 06:12:20;;;;;;;18.05;8.52;;;;;;;;;;4917059;29;20114;-62
2022/04/06 06:14:46;;;;;;;20.95;9.00;;;;;;;;;;4916978;29;20029;-62
2022/04/06 06:17:12;;;;;;;11.10;6.30;;;;;;;;;;4916815;29;20564;-64
2022/04/06 06:19:38;;;;;;;42.63;17.60;;;;;;;;;;4917024;29;20084;-61
2022/04/06 06:22:04;;;;;;;13.52;6.03;;;;;;;;;;4916957;29;20445;-64
2022/04/06 06:24:31;;;;;;;19.58;6.03;;;;;;;;;;4916638;29;20464;-63
2022/04/06 06:26:57;;;;;;;17.08;6.43;;;;;;;;;;4916513;29;20053;-64
2022/04/06 06:29:24;;;;;;;12.32;5.20;;;;;;;;;;4915378;29;20467;-63
2022/04/06 06:31:50;;;;;;;25.13;11.40;;;;;;;;;;4916511;29;20032;-65
2022/04/06 06:34:16;;;;;;;11.82;5.68;;;;;;;;;;4916601;29;20066;-63
2022/04/06 06:36:42;;;;;;;10.25;4.68;;;;;;;;;;4916855;29;20532;-63
2022/04/06 06:39:08;;;;;;;12.38;5.38;;;;;;;;;;4916531;29;20032;-64
2022/04/06 06:41:35;;;;;;;10.20;4.70;;;;;;;;;;4916489;29;20028;-63
2022/04/06 06:44:02;;;;;;;14.52;4.88;;;;;;;;;;4916061;29;20032;-64
2022/04/06 06:46:29;;;;;;;10.93;4.70;;;;;;;;;;4916337;29;20040;-63
2022/04/06 06:49:02;;;;;;;11.50;4.47;;;;;;;;;;4916171;29;20039;-64
2022/04/06 06:51:30;;;;;;;11.25;4.35;;;;;;;;;;4916169;29;20043;-63
2022/04/06 06:53:56;;;;;;;9.95;4.80;;;;;;;;;;4900447;29;20028;-62
2022/04/06 06:56:22;;;;;;;9.45;4.82;;;;;;;;;;4915401;29;20392;-61
2022/04/06 06:58:48;;;;;;;8.32;4.13;;;;;;;;;;4915711;29;20381;-63
2022/04/06 07:01:14;;;;;;;9.23;4.30;;;;;;;;;;4915001;29;20385;-61
2022/04/06 07:03:40;;;;;;;10.23;4.10;;;;;;;;;;4915926;29;20473;-65
2022/04/06 07:06:06;;;;;;;13.73;4.57;;;;;;;;;;4915676;29;20082;-61
2022/04/06 07:08:32;;;;;;;9.27;5.03;;;;;;;;;;4915831;29;20117;-62
2022/04/06 07:10:58;;;;;;;8.88;4.35;;;;;;;;;;4915038;29;20038;-61
2022/04/06 07:13:25;;;;;;;9.82;4.35;;;;;;;;;;4915719;29;20024;-62
2022/04/06 07:15:51;;;;;;;8.90;4.70;;;;;;;;;;4915534;29;20241;-61
2022/04/06 07:18:21;;;;;;;10.38;4.32;;;;;;;;;;4915647;29;20032;-63
2022/04/06 07:20:48;;;;;;;8.98;4.93;;;;;;;;;;4915699;29;20032;-62
2022/04/06 07:23:14;;;;;;;11.13;4.35;;;;;;;;;;4915116;29;20031;-63
2022/04/06 07:25:40;;;;;;;9.73;4.18;;;;;;;;;;4914210;29;20596;-63
2022/04/06 07:28:06;;;;;;;7.95;4.38;;;;;;;;;;4915395;29;20067;-63
2022/04/06 07:30:33;;;;;;;9.10;4.57;;;;;;;;;;4915392;29;20036;-63
2022/04/06 07:33:00;;;;;;;9.20;4.22;;;;;;;;;;4915734;29;20063;-64
2022/04/06 07:35:27;;;;;;;9.50;4.30;;;;;;;;;;4915160;29;20129;-64
2022/04/06 07:37:53;;;;;;;9.90;4.60;;;;;;;;;;4915589;29;20037;-64
2022/04/06 07:40:22;;;;;;;11.15;4.35;;;;;;;;;;4915044;29;20035;-64
2022/04/06 07:42:49;;;;;;;7.25;4.30;;;;;;;;;;4915452;29;20084;-64
2022/04/06 07:45:17;;;;;;;10.02;4.40;;;;;;;;;;4914950;29;20076;-63
2022/04/06 07:47:43;;;;;;;9.43;4.70;;;;;;;;;;4915291;29;20488;-64
2022/04/06 07:50:10;;;;;;;10.15;5.03;;;;;;;;;;4915199;29;20043;-64
2022/04/06 07:52:36;;;;;;;13.32;5.28;;;;;;;;;;4915177;29;20025;-63
2022/04/06 07:55:05;;;;;;;9.75;4.70;;;;;;;;;;4914712;29;20448;-64
2022/04/06 07:57:31;;;;;;;11.18;4.85;;;;;;;;;;4914296;29;20560;-64
2022/04/06 07:59:57;;;;;;;10.80;4.85;;;;;;;;;;4914593;29;20485;-64
2022/04/06 08:02:23;;;;;;;11.32;5.10;;;;;;;;;;4914889;29;20033;-63
2022/04/06 08:04:50;;;;;;;9.93;4.43;;;;;;;;;;4914883;29;20044;-64
2022/04/06 08:07:16;;;;;;;11.15;4.95;;;;;;;;;;4915244;29;20028;-63
2022/04/06 08:09:43;;;;;;;12.00;4.80;;;;;;;;;;4914562;29;20032;-63
2022/04/06 08:12:09;;;;;;;11.05;4.47;;;;;;;;;;4915065;29;20687;-65
2022/04/06 08:14:35;;;;;;;8.27;4.32;;;;;;;;;;4914644;29;20028;-63
2022/04/06 08:17:01;;;;;;;9.13;4.38;;;;;;;;;;4914589;29;20643;-64
2022/04/06 08:19:28;;;;;;;11.35;4.75;;;;;;;;;;4924692;29;20039;-63
2022/04/06 08:21:54;;;;;;;11.32;4.18;;;;;;;;;;4914722;29;20380;-64
2022/04/06 08:24:20;;;;;;;10.43;4.65;;;;;;;;;;4914275;29;20076;-64
2022/04/06 08:26:46;;;;;;;8.88;4.82;;;;;;;;;;4914114;29;20048;-65
2022/04/06 08:29:13;;;;;;;9.88;4.78;;;;;;;;;;4915011;29;20123;-64
2022/04/06 08:31:39;;;;;;;8.00;4.85;;;;;;;;;;4914667;29;20024;-64
2022/04/06 08:34:06;;;;;;;13.45;5.45;;;;;;;;;;4914627;29;20034;-65
2022/04/06 08:36:34;;;;;;;7.40;4.50;;;;;;;;;;4919260;29;20035;-65
2022/04/06 08:39:02;;;;;;;11.93;5.47;;;;;;;;;;4928826;29;20032;-65
2022/04/06 08:41:29;;;;;;;10.38;5.75;;;;;;;;;;4933803;29;20036;-64
2022/04/06 08:43:58;;;;;;;10.50;5.72;;;;;;;;;;4933379;29;20558;-65
2022/04/06 08:46:25;;;;;;;10.07;5.07;;;;;;;;;;4933413;29;20031;-64
2022/04/06 08:48:51;;;;;;;12.90;6.22;;;;;;;;;;4933768;29;20027;-62
2022/04/06 08:51:18;;;;;;;12.95;6.75;;;;;;;;;;4932831;29;20062;-63
2022/04/06 08:53:45;;;;;;;12.98;5.70;;;;;;;;;;4933321;29;20042;-64
2022/04/06 08:56:14;;;;;;;12.88;5.18;;;;;;;;;;4932903;29;20388;-64
2022/04/06 08:58:43;;;;;;;12.98;6.45;;;;;;;;;;4912077;29;20061;-64
2022/04/06 09:01:10;;;;;;;12.02;6.05;;;;;;;;;;4914447;29;20401;-64
2022/04/06 09:03:36;;;;;;;13.35;6.13;;;;;;;;;;4914048;29;20083;-64
2022/04/06 09:06:03;;;;;;;13.60;5.45;;;;;;;;;;4914646;29;20032;-64
2022/04/06 09:08:34;;;;;;;12.30;6.32;;;;;;;;;;4914393;29;20388;-63
2022/04/06 09:11:06;;;;;;;10.07;5.75;;;;;;;;;;4914142;29;20036;-64
2022/04/06 09:13:32;;;;;;;;;;;;;;;;;;4914671;29;20028;-63
2022/04/06 09:16:02;;;;;;;9.80;4.93;;;;;;;;;;4914369;29;20382;-64
2022/04/06 09:18:36;;;;;;;8.30;4.50;;;;;;;;;;4932751;29;20094;-64
2022/04/06 09:21:02;;;;;;;7.18;3.80;;;;;;;;;;4933577;29;20062;-63
2022/04/06 09:23:32;;;;;;;10.55;3.83;;;;;;;;;;4931432;29;20060;-64
2022/04/06 09:26:03;;;;;;;8.98;4.72;;;;;;;;;;4920652;29;20114;-63
2022/04/06 09:28:37;;;;;;;9.52;3.85;;;;;;;;;;4916278;29;20400;-66
2022/04/06 09:31:03;;;;;;;8.60;2.60;;;;;;;;;;4903531;29;20036;-67
2022/04/06 09:33:30;;;;;;;5.43;2.90;;;;;;;;;;4895804;29;20040;-63
2022/04/06 09:35:58;;;;;;;6.70;2.67;;;;;;;;;;4895500;29;20032;-65
2022/04/06 09:38:27;;;;;;;5.22;2.42;;;;;;;;;;4895240;29;20438;-62
2022/04/06 09:41:06;;;;;;;6.07;2.90;;;;;;;;;;4895212;29;20021;-63
2022/04/06 09:43:33;;;;;;;6.05;3.13;;;;;;;;;;4895188;29;20346;-64
2022/04/06 09:49:05;;;;;;;8.63;2.50;;;;;;;;;;4895017;29;20065;-62
2022/04/06 09:51:32;;;;;;;6.32;3.00;;;;;;;;;;4895058;29;20033;-65
2022/04/06 09:54:01;;;;;;;5.05;3.03;;;;;;;;;;4894941;29;20029;-60
2022/04/06 09:56:27;;;;;;;5.63;2.60;;;;;;;;;;4894902;29;20056;-60
2022/04/06 09:58:53;;;;;;;5.60;2.30;;;;;;;;;;4894198;29;20028;-62
2022/04/06 10:01:19;;;;;;;4.72;2.38;;;;;;;;;;4895224;29;20037;-62
2022/04/06 10:03:49;;;;;;;3.78;2.30;;;;;;;;;;4897335;29;20389;-61
2022/04/06 10:06:16;;;;;;;3.67;2.17;;;;;;;;;;4898702;29;20028;-62
2022/04/06 10:08:43;;;;;;;7.50;2.45;;;;;;;;;;4898587;29;20024;-63
2022/04/06 10:11:09;;;;;;;4.50;2.38;;;;;;;;;;4898549;29;20493;-62
2022/04/06 10:13:35;;;;;;;4.45;2.30;;;;;;;;;;4898403;29;20388;-57
2022/04/06 10:16:01;;;;;;;4.20;1.92;;;;;;;;;;4899030;29;20036;-67
2022/04/06 10:18:28;;;;;;;6.30;2.70;;;;;;;;;;4898484;29;20101;-63
2022/04/06 10:20:56;;;;;;;4.22;2.17;;;;;;;;;;4898345;29;20028;-64
2022/04/06 10:23:40;;;;;;;4.22;2.78;;;;;;;;;;4896863;29;20043;-63
2022/04/06 10:26:27;;;;;;;4.80;1.80;;;;;;;;;;4904897;29;20079;-63
2022/04/06 10:28:53;;;;;;;14.02;5.30;;;;;;;;;;4916506;29;20032;-63
2022/04/06 10:31:22;;;;;;;3.78;2.10;;;;;;;;;;4916731;29;20496;-63
2022/04/06 10:33:49;;;;;;;6.35;1.80;;;;;;;;;;4915960;29;20601;-62
2022/04/06 10:36:19;;;;;;;5.13;2.17;;;;;;;;;;4916555;29;20027;-63
2022/04/06 10:39:04;;;;;;;6.50;1.73;;;;;;;;;;4915155;29;20106;-62
2022/04/06 10:41:30;;;;;;;5.05;1.70;;;;;;;;;;4916901;29;20035;-63
2022/04/06 10:43:56;;;;;;;4.10;1.63;;;;;;;;;;4916546;29;20115;-63
2022/04/06 10:46:35;;;;;;;4.05;1.90;;;;;;;;;;4916625;29;20505;-63
2022/04/06 10:49:08;;;;;;;5.20;1.85;;;;;;;;;;4916818;29;20032;-63
2022/04/06 10:51:34;;;;;;;;;;;;;;;;;;4917163;29;20062;-63
2022/04/06 10:54:20;;;;;;;3.15;1.60;;;;;;;;;;4916518;29;20328;-62
2022/04/06 10:56:52;;;;;;;4.32;1.70;;;;;;;;;;4916314;29;20028;-62
2022/04/06 10:59:19;;;;;;;4.00;1.42;;;;;;;;;;4915605;29;20100;-62
2022/04/06 11:01:46;;;;;;;3.53;2.03;;;;;;;;;;4916066;29;20059;-62
2022/04/06 11:04:24;;;;;;;3.88;1.80;;;;;;;;;;4916069;29;20032;-62
2022/04/06 11:06:55;;;;;;;2.45;1.33;;;;;;;;;;4916439;29;20064;-63
2022/04/06 11:12:30;;;;;;;3.30;1.67;;;;;;;;;;4916209;29;20125;-63
2022/04/06 11:14:58;;;;;;;3.35;1.60;;;;;;;;;;4914948;29;20020;-62
2022/04/06 11:20:04;;;;;;;3.25;1.60;;;;;;;;;;4935133;29;20593;-62
2022/04/06 11:22:31;;;;;;;3.85;1.50;;;;;;;;;;4927303;29;20115;-62
2022/04/06 11:24:57;;;;;;;4.38;1.80;;;;;;;;;;4923486;29;20032;-62
2022/04/06 11:27:34;;;;;;;4.43;2.13;;;;;;;;;;4920936;29;20056;-61
2022/04/06 11:30:04;;;;;;;5.93;2.33;;;;;;;;;;4933541;29;20046;-62
2022/04/06 11:32:30;;;;;;;7.10;2.10;;;;;;;;;;4933449;29;20497;-62
2022/04/06 11:35:00;;;;;;;5.30;2.30;;;;;;;;;;4915919;29;20119;-62
2022/04/06 11:37:26;;;;;;;4.72;2.50;;;;;;;;;;4924131;29;20102;-62
2022/04/06 11:39:57;;;;;;;5.25;1.77;;;;;;;;;;4919844;29;20032;-63
2022/04/06 11:42:23;;;;;;;4.10;2.70;;;;;;;;;;4915579;29;20377;-62
2022/04/06 11:44:50;;;;;;;4.57;1.77;;;;;;;;;;4915217;29;20043;-62
2022/04/06 11:47:16;;;;;;;4.30;2.05;;;;;;;;;;4930326;29;20076;-62
2022/04/06 11:49:43;;;;;;;4.57;2.00;;;;;;;;;;4933972;29;20039;-62
2022/04/06 11:52:09;;;;;;;5.50;1.63;;;;;;;;;;4934351;29;20484;-62
2022/04/06 11:54:35;;;;;;;3.47;1.30;;;;;;;;;;4919705;29;20487;-61
2022/04/06 11:57:01;;;;;;;2.65;1.58;;;;;;;;;;4915116;29;20365;-61
2022/04/06 11:59:31;;;;;;;5.82;1.70;;;;;;;;;;4914918;29;20036;-61
2022/04/06 12:01:59;;;;;;;4.18;1.85;;;;;;;;;;4914430;29;20028;-61
2022/04/06 12:04:25;;;;;;;9.63;2.38;;;;;;;;;;4914825;29;20035;-61
2022/04/06 12:06:54;;;;;;;4.57;2.00;;;;;;;;;;4914959;29;20096;-61
2022/04/06 12:09:23;;;;;;;6.65;2.20;;;;;;;;;;4915179;29;20047;-61
2022/04/06 12:11:53;;;;;;;4.75;2.05;;;;;;;;;;4914895;29;20151;-61
2022/04/06 12:14:19;;;;;;;2.80;1.55;;;;;;;;;;4914695;29;20084;-61
2022/04/06 12:16:48;;;;;;;4.80;1.90;;;;;;;;;;4914957;29;20024;-60
2022/04/06 12:19:16;;;;;;;8.35;2.10;;;;;;;;;;4915061;29;20032;-62
2022/04/06 12:21:45;;;;;;;3.88;1.70;;;;;;;;;;4914820;29;20024;-61
2022/04/06 12:24:12;;;;;;;3.10;1.60;;;;;;;;;;4914241;29;20039;-61
2022/04/06 12:26:39;;;;;;;3.95;1.65;;;;;;;;;;4902679;29;20060;-61
2022/04/06 12:29:05;;;;;;;5.85;2.38;;;;;;;;;;4895805;29;20440;-61
2022/04/06 12:31:35;;;;;;;4.45;2.00;;;;;;;;;;4895684;29;20043;-63
2022/04/06 12:34:01;;;;;;;3.63;1.80;;;;;;;;;;4895356;29;20064;-62
2022/04/06 12:36:30;;;;;;;4.45;1.80;;;;;;;;;;4895382;29;20401;-62
2022/04/06 12:38:59;;;;;;;3.10;1.48;;;;;;;;;;4896013;29;20044;-61
2022/04/06 12:41:26;;;;;;;4.72;1.80;;;;;;;;;;4895788;29;20036;-62
2022/04/06 12:43:56;;;;;;;3.35;1.52;;;;;;;;;;4895204;29;20041;-62
2022/04/06 12:46:37;;;;;;;4.03;1.80;;;;;;;;;;4895741;29;20112;-62
2022/04/06 12:49:21;;;;;;;4.10;1.70;;;;;;;;;;4878279;29;20413;-61
2022/04/06 12:51:48;;;;;;;3.25;1.88;;;;;;;;;;4895322;29;20116;-62
2022/04/06 12:54:17;;;;;;;3.55;1.52;;;;;;;;;;4894256;29;20021;-62
2022/04/06 12:57:01;;;;;;;2.90;1.63;;;;;;;;;;4893397;29;20028;-62
2022/04/06 12:59:36;;;;;;;3.50;1.58;;;;;;;;;;4893790;29;20087;-63
2022/04/06 13:02:02;;;;;;;3.25;1.27;;;;;;;;;;4893833;29;20119;-62
2022/04/06 13:04:28;;;;;;;3.72;1.60;;;;;;;;;;4894587;29;20116;-64
2022/04/06 13:06:55;;;;;;;2.58;1.45;;;;;;;;;;4895256;29;20038;-65
2022/04/06 13:09:21;;;;;;;4.05;1.30;;;;;;;;;;4895237;29;20033;-64
2022/04/06 13:11:47;;;;;;;3.63;1.35;;;;;;;;;;4895095;29;20028;-61
2022/04/06 13:14:14;;;;;;;2.28;1.30;;;;;;;;;;4895116;29;20103;-61
2022/04/06 13:16:40;;;;;;;2.85;1.17;;;;;;;;;;4895406;29;20144;-61
2022/04/06 13:19:07;;;;;;;3.20;1.48;;;;;;;;;;4895113;29;20028;-63
2022/04/06 13:21:33;;;;;;;3.58;1.63;;;;;;;;;;4894849;29;20085;-62
2022/04/06 13:24:03;;;;;;;3.58;1.58;;;;;;;;;;4894558;29;20071;-61
2022/04/06 13:26:29;;;;;;;3.97;1.40;;;;;;;;;;4894686;29;20052;-62
2022/04/06 13:28:55;;;;;;;2.70;1.58;;;;;;;;;;4894590;29;20329;-61
2022/04/06 13:31:21;;;;;;;3.40;1.50;;;;;;;;;;4894958;29;20033;-61
2022/04/06 13:33:47;;;;;;;2.45;1.30;;;;;;;;;;4894575;29;20067;-61
2022/04/06 13:36:13;;;;;;;3.55;1.67;;;;;;;;;;4895024;29;20044;-62
2022/04/06 13:38:39;;;;;;;4.63;1.52;;;;;;;;;;4897714;29;20035;-61
2022/04/06 13:41:05;;;;;;;2.55;1.33;;;;;;;;;;4899101;29;20084;-60
2022/04/06 13:43:31;;;;;;;2.83;1.30;;;;;;;;;;4898006;29;20076;-62
2022/04/06 13:45:57;;;;;;;2.83;1.40;;;;;;;;;;4898754;29;20036;-62
2022/04/06 13:48:23;;;;;;;1.92;1.00;;;;;;;;;;4898410;29;20031;-61
2022/04/06 13:50:51;;;;;;;2.70;1.52;;;;;;;;;;4898274;29;20032;-62
2022/04/06 13:53:17;;;;;;;1.98;1.17;;;;;;;;;;4898566;29;20028;-63
2022/04/06 13:55:43;;;;;;;4.05;1.30;;;;;;;;;;4898200;29;20502;-61
2022/04/06 13:58:11;;;;;;;3.35;1.10;;;;;;;;;;4897858;29;20100;-63
2022/04/06 14:00:37;;;;;;;2.42;1.30;;;;;;;;;;4898231;29;20043;-63
2022/04/06 14:03:04;;;;;;;6.32;1.40;;;;;;;;;;4897833;29;20033;-63
2022/04/06 14:05:31;;;;;;;4.70;1.30;;;;;;;;;;4898088;29;20119;-62
2022/04/06 14:07:58;;;;;;;4.50;1.30;;;;;;;;;;4897953;29;20039;-62
2022/04/06 14:10:24;;;;;;;3.22;1.30;;;;;;;;;;4897982;29;20061;-64
2022/04/06 14:12:50;;;;;;;1.65;1.20;;;;;;;;;;4898432;29;20028;-62
2022/04/06 14:15:16;;;;;;;1.77;1.25;;;;;;;;;;4898085;29;20029;-61
2022/04/06 14:17:43;;;;;;;2.20;1.27;;;;;;;;;;4897965;29;20397;-63
2022/04/06 14:20:10;;;;;;;3.88;1.52;;;;;;;;;;4896957;29;20029;-61
2022/04/06 14:22:36;;;;;;;3.38;1.40;;;;;;;;;;4898457;29;20029;-61
2022/04/06 14:25:15;;;;;;;4.13;1.30;;;;;;;;;;4892335;29;20048;-61
2022/04/06 14:27:41;;;;;;;3.42;1.40;;;;;;;;;;4897782;29;20052;-62
2022/04/06 14:30:07;;;;;;;2.40;1.20;;;;;;;;;;4897658;29;20069;-62
2022/04/06 14:32:33;;;;;;;2.40;1.27;;;;;;;;;;4897759;29;20057;-63
2022/04/06 14:34:59;;;;;;;4.47;1.17;;;;;;;;;;4897278;29;20100;-63
2022/04/06 14:37:26;;;;;;;3.92;1.27;;;;;;;;;;4892931;29;20051;-62
2022/04/06 14:39:52;;;;;;;4.45;1.48;;;;;;;;;;4897227;29;20048;-64
2022/04/06 14:42:18;;;;;;;3.83;1.40;;;;;;;;;;4897120;29;20060;-63
2022/04/06 14:44:45;;;;;;;2.28;0.93;;;;;;;;;;4896917;29;20389;-62
2022/04/06 14:47:11;;;;;;;4.05;1.20;;;;;;;;;;4897039;29;20049;-63
2022/04/06 14:49:37;;;;;;;2.50;1.08;;;;;;;;;;4895927;29;20021;-63
2022/04/06 14:52:04;;;;;;;2.33;1.10;;;;;;;;;;4897092;29;20508;-63
2022/04/06 14:54:30;;;;;;;4.95;1.13;;;;;;;;;;4896705;29;20482;-64
2022/04/06 14:56:57;;;;;;;1.90;1.10;;;;;;;;;;4896373;29;20041;-61
2022/04/06 14:59:23;;;;;;;2.17;1.35;;;;;;;;;;4896567;29;20485;-61
2022/04/06 15:01:49;;;;;;;4.32;1.50;;;;;;;;;;4896634;29;20032;-61
2022/04/06 15:04:15;;;;;;;5.85;1.60;;;;;;;;;;4897124;29;20029;-61
2022/04/06 15:06:41;;;;;;;3.50;1.65;;;;;;;;;;4897146;29;20107;-64
2022/04/06 15:09:09;;;;;;;3.05;1.48;;;;;;;;;;4897286;29;20039;-61
2022/04/06 15:11:36;;;;;;;3.58;1.73;;;;;;;;;;4897092;29;20040;-61
2022/04/06 15:14:02;;;;;;;2.55;1.50;;;;;;;;;;4897070;29;20489;-63
2022/04/06 15:16:29;;;;;;;6.13;1.55;;;;;;;;;;4896898;29;20365;-62
2022/04/06 15:18:55;;;;;;;4.63;1.58;;;;;;;;;;4896539;29;20036;-61
2022/04/06 15:21:22;;;;;;;2.80;1.83;;;;;;;;;;4896904;29;20449;-62
2022/04/06 15:23:49;;;;;;;5.32;1.95;;;;;;;;;;4896687;29;20028;-64
2022/04/06 15:26:15;;;;;;;3.22;2.00;;;;;;;;;;4903689;29;20072;-62
2022/04/06 15:28:43;;;;;;;3.17;1.90;;;;;;;;;;4913943;29;20036;-61
2022/04/06 15:31:09;;;;;;;5.68;1.80;;;;;;;;;;4919342;29;20059;-62
2022/04/06 15:33:35;;;;;;;4.10;2.13;;;;;;;;;;4915319;29;20080;-62
2022/04/06 15:38:46;;;;;;;5.90;2.63;;;;;;;;;;4915341;29;20507;-62
2022/04/06 15:41:12;;;;;;;4.22;2.35;;;;;;;;;;4915364;29;20523;-60
2022/04/06 15:43:38;;;;;;;6.80;2.80;;;;;;;;;;4915070;29;20032;-60
2022/04/06 15:46:05;;;;;;;6.35;2.28;;;;;;;;;;4915566;29;20111;-59
2022/04/06 15:48:31;;;;;;;6.35;2.60;;;;;;;;;;4915280;29;20500;-62
2022/04/06 15:50:57;;;;;;;5.43;2.10;;;;;;;;;;4914741;29;20501;-62
2022/04/06 15:53:23;;;;;;;6.70;1.80;;;;;;;;;;4915313;29;20161;-62
2022/04/06 15:55:49;;;;;;;3.15;1.52;;;;;;;;;;4914798;29;20107;-62
2022/04/06 15:58:17;;;;;;;2.85;1.73;;;;;;;;;;4914635;29;20489;-62
2022/04/06 16:00:44;;;;;;;3.63;2.05;;;;;;;;;;4914684;29;20031;-62
2022/04/06 16:03:10;;;;;;;4.72;1.98;;;;;;;;;;4914678;29;20036;-61
2022/04/06 16:05:37;;;;;;;5.55;2.28;;;;;;;;;;4914452;29;20035;-61
2022/04/06 16:08:03;;;;;;;4.95;2.28;;;;;;;;;;4914963;29;20032;-62
2022/04/06 16:10:29;;;;;;;6.15;2.20;;;;;;;;;;4927093;29;20091;-63
2022/04/06 16:12:55;;;;;;;5.20;2.47;;;;;;;;;;4916935;29;20024;-62
2022/04/06 16:15:22;;;;;;;5.00;2.60;;;;;;;;;;4914615;29;20036;-63
2022/04/06 16:17:49;;;;;;;4.82;2.45;;;;;;;;;;4904967;29;20116;-62
2022/04/06 16:20:15;;;;;;;4.53;2.72;;;;;;;;;;4903497;29;20032;-62
2022/04/06 16:22:44;;;;;;;6.47;2.95;;;;;;;;;;4903911;29;20029;-63
2022/04/06 16:25:10;;;;;;;5.97;2.92;;;;;;;;;;4902932;29;20109;-65
2022/04/06 16:27:36;;;;;;;7.43;2.80;;;;;;;;;;4920359;29;20511;-64
2022/04/06 16:30:03;;;;;;;6.80;2.60;;;;;;;;;;4915771;29;20036;-61
2022/04/06 16:32:29;;;;;;;7.57;3.55;;;;;;;;;;4914170;29;20034;-63
2022/04/06 16:34:55;;;;;;;10.20;3.63;;;;;;;;;;4914359;29;20032;-63
2022/04/06 16:37:21;;;;;;;8.05;2.97;;;;;;;;;;4921376;29;20025;-63
2022/04/06 16:39:47;;;;;;;7.07;3.40;;;;;;;;;;4914451;29;20083;-62
2022/04/06 16:42:14;;;;;;;12.25;3.85;;;;;;;;;;4916021;29;20054;-62
2022/04/06 16:44:40;;;;;;;9.48;4.22;;;;;;;;;;4914114;29;20044;-62
2022/04/06 16:47:06;;;;;;;11.85;4.85;;;;;;;;;;4913941;29;20393;-62
2022/04/06 16:55:03;;;;;;;13.82;6.00;;;;;;;;;;4914410;29;20086;-62
2022/04/06 16:57:30;;;;;;;13.95;6.53;;;;;;;;;;4914337;29;20108;-63
2022/04/06 16:59:56;;;;;;;13.55;6.88;;;;;;;;;;4913387;29;20412;-61
2022/04/06 17:02:25;;;;;;;15.38;7.18;;;;;;;;;;4914159;29;20091;-63
2022/04/06 17:04:52;;;;;;;16.27;7.10;;;;;;;;;;4913915;29;20032;-63
2022/04/06 17:07:18;;;;;;;14.95;6.90;;;;;;;;;;4914264;29;20036;-62
2022/04/06 17:09:45;;;;;;;12.25;6.85;;;;;;;;;;4913918;29;20119;-62
2022/04/06 17:12:11;;;;;;;14.50;7.85;;;;;;;;;;4897627;29;20020;-64
2022/04/06 17:14:37;;;;;;;20.80;7.63;;;;;;;;;;4918250;29;20024;-61
2022/04/06 17:17:03;;;;;;;15.00;7.82;;;;;;;;;;4917881;29;20068;-62
2022/04/06 17:19:30;;;;;;;21.27;9.25;;;;;;;;;;4926650;29;20020;-67
2022/04/06 17:21:56;;;;;;;17.40;9.55;;;;;;;;;;4917841;29;20036;-61
2022/04/06 17:24:22;;;;;;;20.08;10.15;;;;;;;;;;4917629;29;20035;-59
2022/04/06 17:26:53;;;;;;;20.20;8.95;;;;;;;;;;4917718;29;20107;-61
2022/04/06 17:29:19;;;;;;;19.80;9.40;;;;;;;;;;4918242;29;20075;-61
2022/04/06 17:31:46;;;;;;;29.52;12.32;;;;;;;;;;4917479;29;20043;-63
2022/04/06 17:34:12;;;;;;;26.10;11.77;;;;;;;;;;4917090;29;20024;-63
2022/04/06 17:36:43;;;;;;;27.42;11.82;;;;;;;;;;4933732;29;20036;-60
2022/04/06 17:39:10;;;;;;;;;;;;;;;;;;4915771;29;20031;-64
2022/04/06 17:41:38;;;;;;;33.60;12.23;;;;;;;;;;4928325;29;20007;-61
2022/04/06 17:44:05;;;;;;;27.80;13.77;;;;;;;;;;4915924;29;20071;-64
2022/04/06 17:46:32;;;;;;;32.72;12.15;;;;;;;;;;4921218;29;20032;-61
2022/04/06 17:49:02;;;;;;;24.95;12.75;;;;;;;;;;4917214;29;20032;-62
2022/04/06 17:51:28;;;;;;;25.42;11.88;;;;;;;;;;4923673;29;20024;-61
2022/04/06 17:53:54;;;;;;;24.00;11.35;;;;;;;;;;4928955;29;20050;-61
2022/04/06 17:56:21;;;;;;;20.88;10.52;;;;;;;;;;4928646;29;20028;-63
2022/04/06 17:58:49;;;;;;;17.02;9.02;;;;;;;;;;4922736;29;20033;-62
2022/04/06 18:01:15;;;;;;;18.05;9.80;;;;;;;;;;4921033;29;20064;-62
2022/04/06 18:03:41;;;;;;;15.55;9.27;;;;;;;;;;4920716;29;20027;-62
2022/04/06 18:06:07;;;;;;;21.08;10.82;;;;;;;;;;4926358;29;20036;-62
2022/04/06 18:08:33;;;;;;;21.88;10.68;;;;;;;;;;4901037;29;20177;-63
2022/04/06 18:13:44;;;;;;;19.10;10.15;;;;;;;;;;4924322;29;20842;-63
2022/04/06 18:16:18;;;;;;;16.95;9.80;;;;;;;;;;4925392;29;20032;-63
2022/04/06 18:18:46;;;;;;;21.83;10.02;;;;;;;;;;4924876;29;20107;-65
2022/04/06 18:21:13;;;;;;;20.67;10.05;;;;;;;;;;4917942;29;20020;-63
2022/04/06 18:23:39;;;;;;;21.83;10.07;;;;;;;;;;4915951;29;20032;-62
2022/04/06 18:26:06;;;;;;;21.10;10.10;;;;;;;;;;4920249;29;20060;-62
2022/04/06 18:28:36;;;;;;;18.90;9.48;;;;;;;;;;4916688;29;20107;-63
2022/04/06 18:31:03;;;;;;;17.23;8.77;;;;;;;;;;4919065;29;20110;-62
2022/04/06 18:33:30;;;;;;;20.15;9.48;;;;;;;;;;4920089;29;20038;-62
2022/04/06 18:35:57;;;;;;;17.60;8.98;;;;;;;;;;4916074;29;20036;-62
2022/04/06 18:38:23;;;;;;;16.75;8.93;;;;;;;;;;4925853;29;20117;-62
2022/04/06 18:40:49;;;;;;;18.65;8.98;;;;;;;;;;4923895;29;20020;-64
2022/04/06 18:43:16;;;;;;;14.85;8.07;;;;;;;;;;4925069;29;20476;-63
2022/04/06 18:45:42;;;;;;;15.82;7.63;;;;;;;;;;4933877;29;20043;-63
2022/04/06 18:48:08;;;;;;;12.45;6.90;;;;;;;;;;4926755;29;20024;-63
2022/04/06 18:50:35;;;;;;;12.05;5.75;;;;;;;;;;4914558;29;20104;-64
2022/04/06 18:53:01;;;;;;;15.32;6.60;;;;;;;;;;4915852;29;20121;-65
2022/04/06 18:55:28;;;;;;;11.68;5.97;;;;;;;;;;4925872;29;20031;-63
2022/04/06 18:57:54;;;;;;;12.90;5.75;;;;;;;;;;4926961;29;20480;-63
2022/04/06 19:00:20;;;;;;;11.82;6.43;;;;;;;;;;4926841;29;20036;-64
2022/04/06 19:02:50;;;;;;;14.10;6.40;;;;;;;;;;4933865;29;20498;-65
2022/04/06 19:05:16;;;;;;;12.23;6.15;;;;;;;;;;4935236;29;20082;-63
2022/04/06 19:07:43;;;;;;;13.05;6.03;;;;;;;;;;4929812;29;20039;-64
2022/04/06 19:10:10;;;;;;;10.18;6.07;;;;;;;;;;4916989;29;20496;-63